createdAt,value
2023-03-06T00:02:24.112Z,99441.50
2023-03-06T00:04:53.375Z,99438.84
2023-03-06T00:07:22.475Z,99444.94
2023-03-06T00:09:51.302Z,99441.63
2023-03-06T00:12:20.534Z,99439.84
2023-03-06T00:14:49.414Z,99441.28
2023-03-06T00:17:18.490Z,99442.28
2023-03-06T00:19:48.666Z,99437.91
2023-03-06T00:22:17.998Z,99444.75
2023-03-06T00:24:46.927Z,99440.50
2023-03-06T00:27:16.049Z,99440.53
2023-03-06T00:29:44.893Z,99445.50
2023-03-06T00:32:14.880Z,99446.38
2023-03-06T00:34:43.707Z,99436.13
2023-03-06T00:37:14.144Z,99440.16
2023-03-06T00:39:43.024Z,99443.72
2023-03-06T00:42:12.331Z,99439.38
2023-03-06T00:44:41.123Z,99437.53
2023-03-06T00:47:11.241Z,99436.59
2023-03-06T00:49:40.350Z,99441.72
2023-03-06T00:52:09.455Z,99446.97
2023-03-06T00:54:39.871Z,99435.91
2023-03-06T00:57:09.695Z,99435.81
2023-03-06T00:59:38.500Z,99438.53
2023-03-06T01:02:08.392Z,99437.63
2023-03-06T01:04:37.508Z,99443.63
2023-03-06T01:07:06.909Z,99444.44
2023-03-06T01:09:35.726Z,99434.38
2023-03-06T01:12:06.825Z,99430.03
2023-03-06T01:14:37.283Z,99423.16
2023-03-06T01:17:06.666Z,99427.50
2023-03-06T01:19:35.539Z,99431.09
2023-03-06T01:22:04.766Z,99425.06
2023-03-06T01:24:33.752Z,99422.56
2023-03-06T01:27:02.840Z,99421.59
2023-03-06T01:29:33.111Z,99425.84
2023-03-06T01:32:02.360Z,99416.50
2023-03-06T01:34:31.306Z,99425.00
2023-03-06T01:37:00.444Z,99418.84
2023-03-06T01:39:31.546Z,99419.94
2023-03-06T01:42:00.714Z,99416.44
2023-03-06T01:44:29.544Z,99422.53
2023-03-06T01:47:02.376Z,99408.81
2023-03-06T01:49:37.604Z,99409.53
2023-03-06T01:52:12.199Z,99418.06
2023-03-06T01:54:49.674Z,99410.28
2023-03-06T01:57:25.137Z,99416.31
2023-03-06T02:00:03.651Z,99413.88
2023-03-06T02:02:47.763Z,99414.88
2023-03-06T02:05:16.741Z,99410.59
2023-03-06T02:07:48.072Z,99418.34
2023-03-06T02:10:19.799Z,99407.16
2023-03-06T02:12:51.862Z,99411.44
2023-03-06T02:15:24.893Z,99416.53
2023-03-06T02:17:57.667Z,99409.59
2023-03-06T02:20:35.185Z,99406.97
2023-03-06T02:23:11.534Z,99407.16
2023-03-06T02:25:46.451Z,99402.13
2023-03-06T02:28:19.794Z,99409.22
2023-03-06T02:30:53.174Z,99413.47
2023-03-06T02:33:26.197Z,99408.53
2023-03-06T02:35:57.659Z,99411.06
2023-03-06T02:38:35.612Z,99407.66
2023-03-06T02:41:09.573Z,99413.00
2023-03-06T02:43:42.205Z,99405.41
2023-03-06T02:46:11.648Z,99412.28
2023-03-06T02:48:40.850Z,99404.50
2023-03-06T02:51:09.640Z,99407.94
2023-03-06T02:53:38.790Z,99402.91
2023-03-06T02:56:09.814Z,99407.22
2023-03-06T02:58:39.379Z,99407.13
2023-03-06T03:01:09.132Z,99407.94
2023-03-06T03:03:38.527Z,99393.44
2023-03-06T03:06:08.817Z,99406.31
2023-03-06T03:08:39.607Z,99402.16
2023-03-06T03:11:10.840Z,99397.09
2023-03-06T03:13:42.757Z,99404.75
2023-03-06T03:16:17.312Z,99398.06
2023-03-06T03:18:48.059Z,99404.84
2023-03-06T03:21:19.440Z,99402.53
2023-03-06T03:23:50.293Z,99397.19
2023-03-06T03:26:23.415Z,99401.38
2023-03-06T03:29:06.399Z,99404.09
2023-03-06T03:31:35.290Z,99411.94
2023-03-06T03:34:05.336Z,99399.13
2023-03-06T03:36:38.407Z,99397.50
2023-03-06T03:39:10.303Z,99393.41
2023-03-06T03:41:41.089Z,99397.81
2023-03-06T03:44:11.785Z,99395.38
2023-03-06T03:46:40.729Z,99395.41
2023-03-06T03:49:15.126Z,99393.66
2023-03-06T03:51:46.070Z,99399.72
2023-03-06T03:54:15.663Z,99401.50
2023-03-06T03:56:48.932Z,99387.78
2023-03-06T03:59:24.478Z,99398.16
2023-03-06T04:02:04.765Z,99393.97
2023-03-06T04:04:38.376Z,99396.69
2023-03-06T04:07:07.820Z,99392.34
2023-03-06T04:09:37.191Z,99383.94
2023-03-06T04:12:08.868Z,99387.50
2023-03-06T04:14:39.344Z,99392.69
2023-03-06T04:17:08.577Z,99392.06
2023-03-06T04:19:37.731Z,99383.66
2023-03-06T04:22:06.775Z,99381.28
2023-03-06T04:24:38.287Z,99389.97
2023-03-06T04:27:08.604Z,99389.22
2023-03-06T04:29:37.743Z,99382.59
2023-03-06T04:32:07.487Z,99376.69
2023-03-06T04:34:36.843Z,99379.41
2023-03-06T04:37:06.340Z,99375.13
2023-03-06T04:39:35.395Z,99374.25
2023-03-06T04:42:04.219Z,99380.34
2023-03-06T04:44:34.698Z,99365.91
2023-03-06T04:47:03.613Z,99364.47
2023-03-06T04:49:32.696Z,99372.06
2023-03-06T04:52:01.454Z,99370.50
2023-03-06T04:54:30.969Z,99373.13
2023-03-06T04:56:59.854Z,99368.91
2023-03-06T04:59:28.971Z,99367.28
2023-03-06T05:01:59.320Z,99368.16
2023-03-06T05:04:28.400Z,99364.78
2023-03-06T05:06:57.267Z,99365.72
2023-03-06T05:09:26.378Z,99360.56
2023-03-06T05:11:55.140Z,99369.97
2023-03-06T05:14:24.161Z,99360.56
2023-03-06T05:16:52.971Z,99364.81
2023-03-06T05:19:23.469Z,99370.84
2023-03-06T05:21:52.244Z,99365.81
2023-03-06T05:24:21.410Z,99363.28
2023-03-06T05:26:50.216Z,99371.91
2023-03-06T05:29:19.320Z,99367.63
2023-03-06T05:31:48.272Z,99359.94
2023-03-06T05:34:18.445Z,99360.88
2023-03-06T05:36:48.567Z,99368.53
2023-03-06T05:39:17.905Z,99364.22
2023-03-06T05:41:46.655Z,99361.66
2023-03-06T05:44:15.817Z,99363.28
2023-03-06T05:46:44.645Z,99370.19
2023-03-06T05:49:13.693Z,99370.16
2023-03-06T05:51:42.521Z,99368.41
2023-03-06T05:54:12.957Z,99372.59
2023-03-06T05:56:42.889Z,99377.66
2023-03-06T05:59:12.046Z,99378.44
2023-03-06T06:01:40.898Z,99377.50
2023-03-06T06:04:11.574Z,99376.53
2023-03-06T06:06:40.393Z,99374.78
2023-03-06T06:09:11.752Z,99374.59
2023-03-06T06:11:43.670Z,99373.59
2023-03-06T06:14:12.726Z,99379.56
2023-03-06T06:16:42.960Z,99380.34
2023-03-06T06:19:18.470Z,99377.56
2023-03-06T06:21:48.815Z,99376.41
2023-03-06T06:24:19.868Z,99376.25
2023-03-06T06:26:51.892Z,99377.13
2023-03-06T06:29:22.058Z,99378.59
2023-03-06T06:31:51.299Z,99378.31
2023-03-06T06:34:21.432Z,99380.56
2023-03-06T06:36:53.409Z,99381.31
2023-03-06T06:39:25.056Z,99377.69
2023-03-06T06:42:14.507Z,99382.53
2023-03-06T06:44:44.297Z,99381.41
2023-03-06T06:47:28.424Z,99383.63
2023-03-06T06:49:58.394Z,99377.09
2023-03-06T06:52:27.268Z,99376.09
2023-03-06T06:54:56.625Z,99377.94
2023-03-06T06:57:27.031Z,99380.63
2023-03-06T06:59:56.139Z,99368.75
2023-03-06T07:02:25.103Z,99362.88
2023-03-06T07:05:03.773Z,99362.66
2023-03-06T07:07:35.585Z,99371.56
2023-03-06T07:10:08.707Z,99350.41
2023-03-06T07:12:39.090Z,99364.66
2023-03-06T07:15:10.026Z,99364.56
2023-03-06T07:17:38.918Z,99358.75
2023-03-06T07:20:10.477Z,99362.56
2023-03-06T07:22:50.312Z,99366.09
2023-03-06T07:25:21.561Z,99364.81
2023-03-06T07:27:54.779Z,99361.00
2023-03-06T07:30:25.133Z,99368.06
2023-03-06T07:32:55.724Z,99363.13
2023-03-06T07:35:26.061Z,99363.59
2023-03-06T07:37:55.579Z,99365.25
2023-03-06T07:40:25.218Z,99362.38
2023-03-06T07:43:12.970Z,99358.34
2023-03-06T07:45:58.187Z,99373.13
2023-03-06T07:48:27.437Z,99364.28
2023-03-06T07:50:59.690Z,99372.28
2023-03-06T07:53:29.249Z,99366.53
2023-03-06T07:55:58.564Z,99364.28
2023-03-06T07:58:29.056Z,99364.75
2023-03-06T08:00:58.257Z,99364.56
2023-03-06T08:03:27.053Z,99361.47
2023-03-06T08:05:56.153Z,99365.06
2023-03-06T08:08:24.950Z,99359.28
2023-03-06T08:10:54.017Z,99368.25
2023-03-06T08:13:22.799Z,99364.78
2023-03-06T08:15:53.243Z,99363.50
2023-03-06T08:18:22.056Z,99358.91
2023-03-06T08:20:51.128Z,99357.00
2023-03-06T08:23:19.959Z,99356.09
2023-03-06T08:25:57.904Z,99362.34
2023-03-06T08:28:27.162Z,99363.69
2023-03-06T08:30:58.472Z,99354.66
2023-03-06T08:33:28.221Z,99349.69
2023-03-06T08:35:57.374Z,99355.03
2023-03-06T08:38:26.182Z,99344.72
2023-03-06T08:40:55.262Z,99349.75
2023-03-06T08:43:24.099Z,99339.88
2023-03-06T08:45:54.431Z,99339.72
2023-03-06T08:48:24.986Z,99338.03
2023-03-06T08:50:54.806Z,99330.84
2023-03-06T08:53:40.374Z,99334.38
2023-03-06T08:56:18.416Z,99329.25
2023-03-06T08:58:48.590Z,99330.31
2023-03-06T09:01:20.710Z,99336.94
2023-03-06T09:03:51.495Z,99335.44
2023-03-06T09:06:20.768Z,99335.78
2023-03-06T09:08:51.568Z,99334.59
2023-03-06T09:11:24.345Z,99334.94
2023-03-06T09:13:54.575Z,99337.94
2023-03-06T09:16:24.264Z,99333.06
2023-03-06T09:18:54.497Z,99334.75
2023-03-06T09:21:24.967Z,99329.44
2023-03-06T09:23:53.938Z,99331.16
2023-03-06T09:26:27.953Z,99333.50
2023-03-06T09:29:01.838Z,99336.88
2023-03-06T09:31:32.116Z,99331.75
2023-03-06T09:34:02.321Z,99332.19
2023-03-06T09:36:31.519Z,99339.13
2023-03-06T09:39:00.310Z,99337.97
2023-03-06T09:41:34.345Z,99334.03
2023-03-06T09:44:08.666Z,99333.19
2023-03-06T09:47:00.560Z,99335.13
2023-03-06T09:49:54.422Z,99328.34
2023-03-06T09:52:38.645Z,99327.81
2023-03-06T09:55:14.170Z,99324.22
2023-03-06T09:57:54.618Z,99324.66
2023-03-06T10:00:31.893Z,99324.06
2023-03-06T10:03:19.340Z,99317.94
2023-03-06T10:05:56.311Z,99316.66
2023-03-06T10:08:36.165Z,99312.13
2023-03-06T10:11:11.161Z,99315.50
2023-03-06T10:13:44.850Z,99318.94
2023-03-06T10:16:28.576Z,99308.88
2023-03-06T10:19:03.749Z,99310.41
2023-03-06T10:21:48.501Z,99307.44
2023-03-06T10:24:36.781Z,99312.31
2023-03-06T10:27:21.749Z,99295.72
2023-03-06T10:30:04.463Z,99298.66
2023-03-06T10:32:49.286Z,99304.03
2023-03-06T10:35:23.369Z,99298.41
2023-03-06T10:38:03.063Z,99303.06
2023-03-06T10:40:45.400Z,99301.16
2023-03-06T10:43:14.404Z,99295.19
2023-03-06T10:45:52.452Z,99304.34
2023-03-06T10:48:24.889Z,99294.69
2023-03-06T10:51:18.093Z,99285.78
2023-03-06T10:54:00.091Z,99291.03
2023-03-06T10:56:33.311Z,99279.97
2023-03-06T10:59:13.496Z,99274.03
2023-03-06T11:01:45.568Z,99278.28
2023-03-06T11:04:26.058Z,99272.91
2023-03-06T11:07:16.572Z,99266.53
2023-03-06T11:10:08.628Z,99263.03
2023-03-06T11:12:39.988Z,99261.34
2023-03-06T11:15:22.308Z,99267.16
2023-03-06T11:18:00.436Z,99258.13
2023-03-06T11:20:50.047Z,99252.34
2023-03-06T11:23:36.721Z,99244.38
2023-03-06T11:26:31.596Z,99245.91
2023-03-06T11:29:38.854Z,99237.09
2023-03-06T11:32:16.365Z,99234.72
2023-03-06T11:34:52.246Z,99227.78
2023-03-06T11:37:47.137Z,99226.41
2023-03-06T11:40:25.346Z,99221.47
2023-03-06T11:43:10.901Z,99220.94
2023-03-06T11:45:46.893Z,99219.13
2023-03-06T11:48:26.320Z,99219.88
2023-03-06T11:51:06.496Z,99207.28
2023-03-06T11:53:40.440Z,99206.00
2023-03-06T11:56:31.880Z,99206.53
2023-03-06T11:59:21.285Z,99201.59
2023-03-06T12:02:02.735Z,99205.91
2023-03-06T12:05:02.238Z,99201.41
2023-03-06T12:07:35.368Z,99200.81
2023-03-06T12:10:20.441Z,99211.78
2023-03-06T12:16:36.361Z,99206.47
2023-03-06T12:19:30.207Z,99186.63
2023-03-06T12:22:29.659Z,99188.00
2023-03-06T12:25:25.749Z,99195.75
2023-03-06T12:28:15.415Z,99186.47
2023-03-06T12:31:33.526Z,99177.47
2023-03-06T12:34:19.951Z,99184.94
2023-03-06T12:37:16.386Z,99179.00
2023-03-06T12:40:15.225Z,99179.25
2023-03-06T12:43:21.845Z,99174.06
2023-03-06T12:45:54.817Z,99170.63
2023-03-06T12:48:30.370Z,99165.16
2023-03-06T12:51:01.085Z,99170.78
2023-03-06T12:53:33.392Z,99166.44
2023-03-06T12:56:05.050Z,99156.00
2023-03-06T12:58:49.448Z,99155.59
2023-03-06T13:01:44.203Z,99152.94
2023-03-06T13:04:49.395Z,99156.47
2023-03-06T13:07:38.402Z,99156.22
2023-03-06T13:10:16.877Z,99158.66
2023-03-06T13:13:01.050Z,99158.19
2023-03-06T13:15:41.962Z,99151.97
2023-03-06T13:18:49.156Z,99149.28
2023-03-06T13:22:10.151Z,99141.66
2023-03-06T13:24:40.385Z,99138.63
2023-03-06T13:27:12.896Z,99134.75
2023-03-06T13:30:26.758Z,99134.66
2023-03-06T13:32:57.173Z,99129.63
2023-03-06T13:35:55.496Z,99144.50
2023-03-06T13:38:56.057Z,99130.47
2023-03-06T13:41:58.236Z,99130.25
2023-03-06T13:44:51.139Z,99132.22
2023-03-06T13:48:15.881Z,99133.13
2023-03-06T13:50:45.638Z,99120.69
2023-03-06T13:54:09.557Z,99118.50
2023-03-06T13:57:17.459Z,99128.03
2023-03-06T14:00:42.376Z,99112.25
2023-03-06T14:03:58.304Z,99115.19
2023-03-06T14:07:11.282Z,99118.81
2023-03-06T14:09:46.067Z,99110.75
2023-03-06T14:12:24.106Z,99111.88
2023-03-06T14:14:58.842Z,99108.91
2023-03-06T14:17:32.952Z,99103.72
2023-03-06T14:20:13.616Z,99105.00
2023-03-06T14:22:42.762Z,99106.56
2023-03-06T14:25:21.712Z,99102.31
2023-03-06T14:27:58.190Z,99100.41
2023-03-06T14:30:29.491Z,99102.84
2023-03-06T14:32:58.453Z,99097.06
2023-03-06T14:35:31.150Z,99107.22
2023-03-06T14:38:04.613Z,99094.56
2023-03-06T14:40:37.754Z,99104.53
2023-03-06T14:43:24.591Z,99099.50
2023-03-06T14:45:57.968Z,99098.09
2023-03-06T14:48:39.597Z,99096.31
2023-03-06T14:51:16.913Z,99092.41
2023-03-06T14:53:48.955Z,99102.78
2023-03-06T14:56:21.132Z,99094.84
2023-03-06T14:58:58.497Z,99094.47
2023-03-06T15:01:34.009Z,99092.81
2023-03-06T15:04:08.055Z,99086.88
2023-03-06T15:06:44.054Z,99098.91
2023-03-06T15:09:20.943Z,99100.84
2023-03-06T15:11:57.043Z,99093.66
2023-03-06T15:14:37.115Z,99095.16
2023-03-06T15:17:29.320Z,99099.50
2023-03-06T15:20:00.535Z,99100.50
2023-03-06T15:22:37.438Z,99096.16
2023-03-06T15:25:27.675Z,99092.47
2023-03-06T15:27:59.170Z,99095.91
2023-03-06T15:30:33.488Z,99091.41
2023-03-06T15:33:25.885Z,99092.00
2023-03-06T15:35:57.521Z,99102.25
2023-03-06T15:38:36.162Z,99096.09
2023-03-06T15:41:07.840Z,99094.47
2023-03-06T15:43:40.346Z,99097.84
2023-03-06T15:46:12.361Z,99099.50
2023-03-06T15:48:51.798Z,99089.88
2023-03-06T15:51:20.830Z,99098.00
2023-03-06T15:53:50.253Z,99090.00
2023-03-06T15:56:25.728Z,99100.09
2023-03-06T15:58:55.445Z,99088.97
2023-03-06T16:01:26.235Z,99094.75
2023-03-06T16:03:55.459Z,99101.03
2023-03-06T16:06:26.092Z,99098.44
2023-03-06T16:08:55.601Z,99096.00
2023-03-06T16:11:41.866Z,99094.31
2023-03-06T16:14:23.704Z,99096.16
2023-03-06T16:16:55.174Z,99097.19
2023-03-06T16:19:27.830Z,99105.78
2023-03-06T16:21:59.027Z,99092.47
2023-03-06T16:24:29.197Z,99096.00
2023-03-06T16:27:01.621Z,99094.31
2023-03-06T16:29:31.502Z,99099.34
2023-03-06T16:32:02.084Z,99102.69
2023-03-06T16:34:31.333Z,99101.13
2023-03-06T16:37:00.150Z,99102.69
2023-03-06T16:39:29.344Z,99105.28
2023-03-06T16:41:58.375Z,99096.50
2023-03-06T16:44:27.467Z,99102.59
2023-03-06T16:46:56.289Z,99104.13
2023-03-06T16:49:26.961Z,99101.44
2023-03-06T16:51:56.356Z,99107.72
2023-03-06T16:54:26.327Z,99103.34
2023-03-06T16:56:55.206Z,99106.63
2023-03-06T16:59:25.025Z,99109.50
2023-03-06T17:01:53.914Z,99106.03
2023-03-06T17:04:22.981Z,99105.22
2023-03-06T17:06:53.376Z,99103.44
2023-03-06T17:09:22.662Z,99108.63
2023-03-06T17:11:51.473Z,99111.41
2023-03-06T17:14:20.640Z,99105.22
2023-03-06T17:16:49.480Z,99100.75
2023-03-06T17:19:18.552Z,99113.94
2023-03-06T17:21:47.355Z,99113.34
2023-03-06T17:24:17.823Z,99102.09
2023-03-06T17:26:48.519Z,99107.22
2023-03-06T17:29:17.823Z,99109.72
2023-03-06T17:31:48.126Z,99106.16
2023-03-06T17:34:17.243Z,99107.88
2023-03-06T17:36:46.051Z,99105.38
2023-03-06T17:39:16.307Z,99103.56
2023-03-06T17:41:46.641Z,99106.81
2023-03-06T17:44:16.511Z,99104.97
2023-03-06T17:46:45.852Z,99103.88
2023-03-06T17:49:15.363Z,99103.94
2023-03-06T17:51:44.153Z,99101.44
2023-03-06T17:54:13.236Z,99092.81
2023-03-06T17:56:42.317Z,99098.09
2023-03-06T17:59:13.596Z,99095.56
2023-03-06T18:01:43.532Z,99105.22
2023-03-06T18:04:13.067Z,99099.03
2023-03-06T18:06:41.880Z,99097.50
2023-03-06T18:09:10.998Z,99095.25
2023-03-06T18:11:39.912Z,99095.41
2023-03-06T18:14:09.797Z,99099.63
2023-03-06T18:16:40.183Z,99103.03
2023-03-06T18:19:12.499Z,99104.88
2023-03-06T18:21:41.742Z,99098.66
2023-03-06T18:24:12.378Z,99106.28
2023-03-06T18:26:43.348Z,99103.47
2023-03-06T18:29:12.642Z,99102.50
2023-03-06T18:31:44.807Z,99110.75
2023-03-06T18:34:17.838Z,99103.19
2023-03-06T18:36:50.742Z,99105.88
2023-03-06T18:39:21.475Z,99106.81
2023-03-06T18:41:51.771Z,99104.22
2023-03-06T18:44:21.104Z,99103.28
2023-03-06T18:46:51.421Z,99108.31
2023-03-06T18:49:20.535Z,99112.00
2023-03-06T18:51:51.717Z,99100.00
2023-03-06T18:54:20.892Z,99102.38
2023-03-06T18:56:49.731Z,99104.81
2023-03-06T18:59:19.088Z,99100.13
2023-03-06T19:01:48.749Z,99094.34
2023-03-06T19:04:19.266Z,99093.16
2023-03-06T19:06:48.177Z,99093.25
2023-03-06T19:09:18.697Z,99087.28
2023-03-06T19:11:47.655Z,99087.63
2023-03-06T19:14:17.257Z,99091.81
2023-03-06T19:16:46.267Z,99092.06
2023-03-06T19:19:15.320Z,99093.81
2023-03-06T19:21:45.581Z,99095.50
2023-03-06T19:24:14.693Z,99085.13
2023-03-06T19:26:43.750Z,99082.38
2023-03-06T19:29:13.125Z,99082.28
2023-03-06T19:31:42.925Z,99083.84
2023-03-06T19:34:12.312Z,99084.78
2023-03-06T19:36:41.153Z,99083.94
2023-03-06T19:39:13.083Z,99086.63
2023-03-06T19:41:41.884Z,99084.88
2023-03-06T19:44:12.292Z,99080.50
2023-03-06T19:46:41.233Z,99085.72
2023-03-06T19:49:16.967Z,99083.50
2023-03-06T19:51:46.024Z,99080.91
2023-03-06T19:54:16.587Z,99086.09
2023-03-06T19:56:45.361Z,99078.31
2023-03-06T19:59:14.470Z,99085.63
2023-03-06T20:01:43.393Z,99075.41
2023-03-06T20:04:12.676Z,99086.63
2023-03-06T20:06:41.539Z,99086.78
2023-03-06T20:09:12.393Z,99087.72
2023-03-06T20:11:42.563Z,99083.66
2023-03-06T20:14:14.148Z,99083.59
2023-03-06T20:16:42.954Z,99088.84
2023-03-06T20:19:12.899Z,99083.59
2023-03-06T20:21:41.711Z,99086.09
2023-03-06T20:24:16.758Z,99080.16
2023-03-06T20:26:48.967Z,99091.44
2023-03-06T20:29:18.113Z,99081.75
2023-03-06T20:31:47.215Z,99080.16
2023-03-06T20:34:16.416Z,99080.91
2023-03-06T20:36:45.219Z,99077.34
2023-03-06T20:39:18.579Z,99084.34
2023-03-06T20:41:49.511Z,99086.19
2023-03-06T20:44:20.447Z,99082.16
2023-03-06T20:46:49.274Z,99086.75
2023-03-06T20:49:18.773Z,99085.22
2023-03-06T20:51:47.617Z,99075.94
2023-03-06T20:54:17.861Z,99078.78
2023-03-06T20:56:50.416Z,99083.28
2023-03-06T20:59:20.269Z,99079.19
2023-03-06T21:01:49.161Z,99086.38
2023-03-06T21:04:18.601Z,99083.88
2023-03-06T21:06:48.020Z,99085.56
2023-03-06T21:09:18.624Z,99081.13
2023-03-06T21:11:49.359Z,99075.00
2023-03-06T21:14:18.453Z,99075.50
2023-03-06T21:16:47.236Z,99073.66
2023-03-06T21:19:16.880Z,99068.66
2023-03-06T21:21:45.666Z,99082.38
2023-03-06T21:24:16.684Z,99084.31
2023-03-06T21:26:45.540Z,99077.28
2023-03-06T21:29:16.036Z,99071.34
2023-03-06T21:31:44.906Z,99069.88
2023-03-06T21:34:14.032Z,99070.00
2023-03-06T21:36:43.595Z,99059.09
2023-03-06T21:39:12.940Z,99069.06
2023-03-06T21:41:42.565Z,99076.75
2023-03-06T21:44:12.206Z,99073.50
2023-03-06T21:46:42.443Z,99075.19
2023-03-06T21:49:11.569Z,99069.06
2023-03-06T21:51:40.548Z,99075.94
2023-03-06T21:54:09.851Z,99075.06
2023-03-06T21:56:38.650Z,99070.00
2023-03-06T21:59:07.719Z,99079.44
2023-03-06T22:01:36.671Z,99078.69
2023-03-06T22:04:07.250Z,99085.69
2023-03-06T22:06:36.200Z,99082.34
2023-03-06T22:09:05.407Z,99084.16
2023-03-06T22:11:37.244Z,99079.91
2023-03-06T22:14:07.023Z,99082.06
2023-03-06T22:16:35.885Z,99083.81
2023-03-06T22:19:07.291Z,99086.72
2023-03-06T22:21:36.107Z,99091.69
2023-03-06T22:24:05.857Z,99090.13
2023-03-06T22:26:34.644Z,99090.81
2023-03-06T22:29:03.745Z,99091.81
2023-03-06T22:31:32.678Z,99089.31
2023-03-06T22:34:02.687Z,99088.94
2023-03-06T22:36:33.086Z,99093.78
2023-03-06T22:39:04.230Z,99101.34
2023-03-06T22:41:33.269Z,99098.66
2023-03-06T22:44:03.942Z,99099.50
2023-03-06T22:46:34.114Z,99102.84
2023-03-06T22:49:03.844Z,99101.41
2023-03-06T22:51:34.123Z,99101.56
2023-03-06T22:54:03.238Z,99110.09
2023-03-06T22:56:32.574Z,99112.75
2023-03-06T22:59:01.741Z,99111.41
2023-03-06T23:01:33.025Z,99112.25
2023-03-06T23:04:04.403Z,99115.91
2023-03-06T23:06:38.014Z,99111.72
2023-03-06T23:09:09.800Z,99119.66
2023-03-06T23:11:56.950Z,99124.00
2023-03-06T23:14:49.506Z,99117.28
2023-03-06T23:17:37.156Z,99121.56
2023-03-06T23:20:24.955Z,99125.75
2023-03-06T23:23:13.745Z,99129.03
2023-03-06T23:25:43.690Z,99130.06
2023-03-06T23:28:13.154Z,99140.59
2023-03-06T23:30:43.591Z,99137.06
2023-03-06T23:33:12.715Z,99138.84
2023-03-06T23:35:43.541Z,99138.84
2023-03-06T23:38:13.901Z,99136.03
2023-03-06T23:40:43.903Z,99152.69
2023-03-06T23:43:12.742Z,99148.66
2023-03-06T23:45:41.763Z,99147.34
2023-03-06T23:48:11.581Z,99148.47
2023-03-06T23:50:41.354Z,99155.38
2023-03-06T23:53:10.145Z,99151.28
2023-03-06T23:55:44.226Z,99151.22
2023-03-06T23:58:15.590Z,99153.94
